Abbotsford, British Columbia

3:03 PM PDT on September 04, 2015 (GMT -0700)
Hwy 1 @ McCallum | | Change Station
CLOSE
Current Station
Personal Weather Station
Location: Abbotsford, BC
Elevation: 190 ft
Nearby Weather Stations

Elev 190 ft 49.03 °N, 122.30 °W | Updated 29 seconds ago

Mostly Cloudy
Mostly Cloudy
67.5 °F
Feels Like 67.5 °F
N
4.4
Wind Variable Wind from North
Gusts 8.1 mph

Today
High -- | Low -- °F
--% Chance of Precip.
Yesterday
High -- | Low -- °F
Precip. -- in
6:30 AM 7:45 PM
Waning Gibbous, 55% visible
Pressure 30.00 in
Visibility 10.0 miles
Clouds Clear
Dew Point 50 °F
Humidity 54%
Rainfall 0.00 in
Snow Depth Not available.
UV 3.1 out of 12
Pollen Not available.
Air Quality Not available.
Flu Activity Not available.
METAR KBLI 042153Z 00000KT 10SM CLR 19/09 A2997 RMK AO2 SLP157 T01890094
Pressure 30.00 in
Visibility 10.0 miles
Clouds Clear
Dew Point 50 °F
Humidity 54%
Rainfall 0.00 in
Snow Depth Not available.
UV 3.1 out of 12
Pollen Not available.
Air Quality Not available.
Flu Activity Not available.
METAR KBLI 042153Z 00000KT 10SM CLR 19/09 A2997 RMK AO2 SLP157 T01890094

10-Day Weather Forecast

×

Almanac

Astronomy

Sep. 04, 2015 Rise Set
Actual Time
Civil Twilight
Nautical Twilight
Astronomical Twilight
Moon
Length of Visible Light
Length of Day
Tomorrow will be .
, % of the Moon is Illuminated

Today's Extremes

Country Highs Country Lows

Community

WunderPhotos

Upload Photos

1,852,305 photos uploaded!

WunderBlogs® & News

Nearby

Air Quality

  Air Quality AQ Index Pollutant
Not available.

Snow Depth

Station Depth Elevation

Earthquake Activity

City Distance Mag. Time & Date
Minimum magnitude displayed is 2.5.

Coastal Water Temperatures

Place Temperature

Stations

Nearby Weather Stations

Station Location Temp. Windchill Dew Point Humidity Wind Precip. Elev Updated Type